Philipp, Mississippi
Current Conditions -  °F | °C
As of 8:53 PM on Monday 26 Jan 2015 (Local Time) from KGWO Reporting Station
Clear Clear  
Wind Chill: 33°   Ceiling: Unl
Heat Index: 38°   Visibility: 10mi
Dew Point: 35°   Wind: 7mph
Humidity: 89%   Direction: 180°S
Pressure: 30.02"   Gusts: NA
Location:  33.76°N, 90.2°W
Report Text: KGWO 270253Z AUTO 18006KT 10SM CLR 03/02 A3002 RMK AO2 SLP165 T00330017 50003
Loading
Personal Weather Stations






























Interactive Weather Map New forecast layout! Learn more

10-Day Weather Forecast

Advertisements
Track Severe Weather on mobile